createdAt,value
2022-10-12T00:01:24.636Z,50.72
2022-10-12T00:03:53.392Z,42.42
2022-10-12T00:06:23.599Z,47.95
2022-10-12T00:08:53.994Z,52.50
2022-10-12T00:11:25.327Z,43.47
2022-10-12T00:13:53.982Z,42.55
2022-10-12T00:16:23.783Z,43.20
2022-10-12T00:18:53.265Z,42.35
2022-10-12T00:21:22.153Z,45.30
2022-10-12T00:23:51.126Z,43.65
2022-10-12T00:26:21.601Z,44.38
2022-10-12T00:28:56.117Z,47.25
2022-10-12T00:31:24.889Z,46.35
2022-10-12T00:33:54.296Z,41.28
2022-10-12T00:36:24.942Z,58.15
2022-10-12T00:38:55.656Z,52.95
2022-10-12T00:41:27.169Z,44.42
2022-10-12T00:43:58.467Z,48.63
2022-10-12T00:46:31.250Z,40.50
2022-10-12T00:49:04.590Z,47.63
2022-10-12T00:51:33.351Z,45.75
2022-10-12T00:54:04.888Z,49.90
2022-10-12T00:56:35.084Z,38.78
2022-10-12T00:59:09.614Z,52.60
2022-10-12T01:01:38.083Z,51.80
2022-10-12T01:04:07.293Z,64.35
2022-10-12T01:06:36.047Z,53.70
2022-10-12T01:09:05.228Z,52.97
2022-10-12T01:11:33.805Z,46.97
2022-10-12T01:14:02.652Z,40.15
2022-10-12T01:16:37.920Z,47.15
2022-10-12T01:19:16.957Z,52.60
2022-10-12T01:21:47.626Z,45.63
2022-10-12T01:24:47.385Z,44.13
2022-10-12T01:27:37.608Z,44.67
2022-10-12T01:32:56.031Z,57.03
2022-10-12T01:35:27.948Z,49.00
2022-10-12T01:38:04.443Z,47.92
2022-10-12T01:40:38.833Z,39.95
2022-10-12T01:43:08.654Z,48.75
2022-10-12T01:45:38.674Z,44.33
2022-10-12T01:48:07.665Z,40.78
2022-10-12T01:50:44.214Z,46.53
2022-10-12T01:53:18.286Z,35.45
2022-10-12T01:55:51.535Z,43.40
2022-10-12T01:58:30.304Z,39.08
2022-10-12T02:01:07.734Z,37.97
2022-10-12T02:03:43.089Z,41.78
2022-10-12T02:06:14.138Z,36.00
2022-10-12T02:08:47.919Z,39.08
2022-10-12T02:11:18.692Z,36.42
2022-10-12T02:13:49.572Z,40.92
2022-10-12T02:16:22.064Z,39.20
2022-10-12T02:18:52.721Z,40.03
2022-10-12T02:21:23.520Z,41.58
2022-10-12T02:23:54.186Z,42.88
2022-10-12T02:26:23.436Z,38.90
2022-10-12T02:28:52.022Z,39.67
2022-10-12T02:31:28.548Z,45.55
2022-10-12T02:34:02.270Z,40.88
2022-10-12T02:36:37.309Z,42.83
2022-10-12T02:39:10.057Z,49.17
2022-10-12T02:41:42.255Z,49.45
2022-10-12T02:44:13.969Z,47.38
2022-10-12T02:46:44.249Z,42.97
2022-10-12T02:49:13.433Z,40.85
2022-10-12T02:51:42.367Z,39.15
2022-10-12T02:54:11.023Z,41.92
2022-10-12T02:56:44.993Z,45.05
2022-10-12T02:59:14.341Z,40.30
2022-10-12T03:01:44.366Z,43.30
2022-10-12T03:06:42.617Z,62.83
2022-10-12T03:09:11.191Z,42.67
2022-10-12T03:11:43.839Z,38.92
2022-10-12T03:14:12.956Z,39.65
2022-10-12T03:16:41.237Z,40.03
2022-10-12T03:19:11.354Z,34.03
2022-10-12T03:21:39.952Z,41.72
2022-10-12T03:24:08.945Z,43.20
2022-10-12T03:26:37.730Z,40.47
2022-10-12T03:29:06.516Z,40.78
2022-10-12T03:31:34.807Z,33.45
2022-10-12T03:34:03.423Z,44.10
2022-10-12T03:36:34.611Z,47.20
2022-10-12T03:39:03.286Z,42.42
2022-10-12T03:41:31.932Z,43.47
2022-10-12T03:44:00.575Z,37.17
2022-10-12T03:46:28.864Z,41.85
2022-10-12T03:48:57.484Z,38.75
2022-10-12T03:51:26.361Z,39.45
2022-10-12T03:53:56.425Z,38.10
2022-10-12T03:56:24.982Z,44.10
2022-10-12T03:58:53.228Z,44.90
2022-10-12T04:01:22.005Z,47.92
2022-10-12T04:03:50.790Z,42.40
2022-10-12T04:06:19.417Z,47.13
2022-10-12T04:08:51.028Z,44.58
2022-10-12T04:11:21.559Z,41.33
2022-10-12T04:13:49.967Z,47.30
2022-10-12T04:16:18.637Z,43.05
2022-10-12T04:18:47.622Z,44.83
2022-10-12T04:21:17.594Z,44.05
2022-10-12T04:23:46.342Z,47.70
2022-10-12T04:26:15.066Z,45.20
2022-10-12T04:28:44.831Z,41.58
2022-10-12T04:31:13.506Z,48.20
2022-10-12T04:33:42.163Z,43.45
2022-10-12T04:36:11.039Z,51.55
2022-10-12T04:38:39.704Z,46.42
2022-10-12T04:41:08.305Z,43.75
2022-10-12T04:43:36.583Z,45.38
2022-10-12T04:46:06.768Z,47.05
2022-10-12T04:48:35.477Z,43.22
2022-10-12T04:51:04.196Z,51.28
2022-10-12T04:53:33.155Z,56.17
2022-10-12T04:56:03.702Z,43.92
2022-10-12T05:01:00.648Z,48.28
2022-10-12T05:03:30.635Z,48.88
2022-10-12T05:05:59.301Z,50.60
2022-10-12T05:08:27.938Z,49.58
2022-10-12T05:10:58.491Z,48.17
2022-10-12T05:13:27.417Z,49.03
2022-10-12T05:15:56.291Z,61.92
2022-10-12T05:18:25.241Z,60.10
2022-10-12T05:20:57.140Z,72.10
2022-10-12T05:23:26.017Z,48.88
2022-10-12T05:25:55.845Z,55.38
2022-10-12T05:28:26.054Z,62.22
2022-10-12T05:30:54.999Z,50.60
2022-10-12T05:33:23.657Z,51.50
2022-10-12T05:35:56.343Z,55.20
2022-10-12T05:38:26.814Z,48.92
2022-10-12T05:41:00.066Z,46.42
2022-10-12T05:43:29.879Z,52.38
2022-10-12T05:45:58.802Z,44.20
2022-10-12T05:48:27.697Z,46.70
2022-10-12T05:50:56.485Z,46.60
2022-10-12T05:53:26.609Z,50.83
2022-10-12T05:55:55.872Z,47.78
2022-10-12T05:58:25.201Z,42.10
2022-10-12T06:00:54.210Z,49.97
2022-10-12T06:03:26.201Z,44.72
2022-10-12T06:05:55.168Z,57.70
2022-10-12T06:08:23.851Z,48.05
2022-10-12T06:10:54.083Z,49.67
2022-10-12T06:13:22.837Z,45.28
2022-10-12T06:15:51.671Z,53.45
2022-10-12T06:18:20.466Z,44.65
2022-10-12T06:20:49.821Z,39.60
2022-10-12T06:23:18.863Z,50.20
2022-10-12T06:25:48.263Z,36.53
2022-10-12T06:28:19.485Z,33.30
2022-10-12T06:30:48.619Z,37.22
2022-10-12T06:33:17.210Z,32.83
2022-10-12T06:35:45.891Z,34.58
2022-10-12T06:38:14.481Z,34.30
2022-10-12T06:40:43.059Z,35.85
2022-10-12T06:43:11.692Z,42.20
2022-10-12T06:45:41.710Z,43.20
2022-10-12T06:48:12.845Z,29.60
2022-10-12T06:50:43.625Z,34.78
2022-10-12T06:53:12.311Z,34.03
2022-10-12T06:55:41.312Z,44.35
2022-10-12T06:58:10.016Z,46.40
2022-10-12T07:00:39.040Z,34.40
2022-10-12T07:03:11.155Z,40.67
2022-10-12T07:05:39.775Z,37.38
2022-10-12T07:08:08.447Z,44.30
2022-10-12T07:10:36.729Z,45.80
2022-10-12T07:13:05.368Z,40.65
2022-10-12T07:15:34.014Z,35.30
2022-10-12T07:18:02.615Z,33.13
2022-10-12T07:20:32.663Z,40.50
2022-10-12T07:23:01.277Z,41.40
2022-10-12T07:25:29.617Z,35.90
2022-10-12T07:27:58.287Z,28.45
2022-10-12T07:30:27.001Z,29.08
2022-10-12T07:32:55.886Z,34.35
2022-10-12T07:35:26.309Z,35.72
2022-10-12T07:37:56.138Z,30.67
2022-10-12T07:40:26.374Z,35.42
2022-10-12T07:43:16.505Z,38.90
2022-10-12T07:45:44.414Z,26.83
2022-10-12T07:48:13.348Z,21.92
2022-10-12T07:50:41.998Z,30.58
2022-10-12T07:53:12.021Z,26.33
2022-10-12T07:55:40.348Z,20.02
2022-10-12T07:58:09.041Z,30.95
2022-10-12T08:00:37.755Z,30.50
2022-10-12T08:03:06.549Z,36.03
2022-10-12T08:05:38.200Z,29.25
2022-10-12T08:08:08.886Z,26.13
2022-10-12T08:10:38.900Z,27.17
2022-10-12T08:13:07.478Z,28.90
2022-10-12T08:15:36.083Z,21.73
2022-10-12T08:18:04.905Z,21.48
2022-10-12T08:20:33.584Z,22.38
2022-10-12T08:23:02.173Z,27.77
2022-10-12T08:25:30.599Z,24.45
2022-10-12T08:28:01.250Z,36.03
2022-10-12T08:30:29.898Z,26.90
2022-10-12T08:32:58.585Z,24.63
2022-10-12T08:35:27.387Z,18.27
2022-10-12T08:37:55.939Z,24.25
2022-10-12T08:40:32.048Z,15.18
2022-10-12T08:43:07.725Z,18.55
2022-10-12T08:45:39.849Z,14.75
2022-10-12T08:48:12.910Z,10.18
2022-10-12T08:50:45.517Z,20.85
2022-10-12T08:53:17.495Z,16.55
2022-10-12T08:55:46.823Z,16.00
2022-10-12T08:58:20.784Z,12.57
2022-10-12T09:00:51.993Z,12.40
2022-10-12T09:03:33.747Z,13.38
2022-10-12T09:06:09.852Z,14.35
2022-10-12T09:08:48.878Z,12.40
2022-10-12T09:11:38.866Z,13.25
2022-10-12T09:16:41.435Z,16.73
2022-10-12T09:19:14.811Z,12.40
2022-10-12T09:21:43.872Z,16.98
2022-10-12T09:24:16.463Z,21.00
2022-10-12T09:26:46.505Z,12.90
2022-10-12T09:29:24.281Z,14.07
2022-10-12T09:32:12.055Z,17.13
2022-10-12T09:34:41.294Z,11.43
2022-10-12T09:37:14.181Z,15.70
2022-10-12T09:39:43.128Z,12.63
2022-10-12T09:42:12.534Z,15.63
2022-10-12T09:44:46.350Z,10.25
2022-10-12T09:47:27.158Z,11.00
2022-10-12T09:49:58.858Z,7.68
2022-10-12T09:52:30.842Z,12.55
2022-10-12T09:55:03.562Z,11.73
2022-10-12T09:57:35.624Z,7.65
2022-10-12T10:00:08.863Z,9.18
2022-10-12T10:02:50.303Z,11.43
2022-10-12T10:05:26.849Z,12.20
2022-10-12T10:08:16.021Z,13.05
2022-10-12T10:10:49.478Z,10.80
2022-10-12T10:13:18.400Z,10.73
2022-10-12T10:15:50.490Z,9.57
2022-10-12T10:18:24.003Z,13.93
2022-10-12T10:20:55.183Z,14.10
2022-10-12T10:23:27.107Z,14.50
2022-10-12T10:25:57.744Z,10.32
2022-10-12T10:28:29.876Z,12.32
2022-10-12T10:31:02.858Z,14.35
2022-10-12T10:33:33.038Z,13.05
2022-10-12T10:36:04.814Z,11.75
2022-10-12T10:38:46.209Z,14.43
2022-10-12T10:41:18.187Z,12.48
2022-10-12T10:43:47.574Z,11.45
2022-10-12T10:51:21.689Z,8.27
2022-10-12T10:53:51.404Z,6.72
2022-10-12T10:58:52.892Z,10.05
2022-10-12T11:01:26.645Z,10.50
2022-10-12T11:03:59.517Z,12.75
2022-10-12T11:06:34.290Z,9.68
2022-10-12T11:09:06.308Z,13.52
2022-10-12T11:11:37.841Z,12.88
2022-10-12T11:14:13.916Z,9.52
2022-10-12T11:16:47.029Z,7.40
2022-10-12T11:19:25.802Z,16.38
2022-10-12T11:21:56.024Z,12.52
2022-10-12T11:24:28.962Z,6.65
2022-10-12T11:26:59.390Z,19.98
2022-10-12T11:29:28.903Z,13.55
2022-10-12T11:32:04.383Z,9.87
2022-10-12T11:34:44.054Z,16.23
2022-10-12T11:37:20.313Z,13.68
2022-10-12T11:39:51.731Z,10.80
2022-10-12T11:42:30.727Z,12.25
2022-10-12T11:45:00.943Z,10.77
2022-10-12T11:47:37.831Z,10.20
2022-10-12T11:50:08.996Z,11.48
2022-10-12T11:52:40.557Z,9.48
2022-10-12T11:55:25.521Z,8.35
2022-10-12T11:57:55.600Z,7.80
2022-10-12T12:00:26.792Z,8.57
2022-10-12T12:03:00.832Z,6.60
2022-10-12T12:05:33.891Z,7.60
2022-10-12T12:08:03.220Z,7.55
2022-10-12T12:11:05.880Z,11.32
2022-10-12T12:13:34.509Z,12.00
2022-10-12T12:16:34.094Z,7.63
2022-10-12T12:19:18.754Z,13.80
2022-10-12T12:22:14.918Z,10.43
2022-10-12T12:24:53.372Z,12.65
2022-10-12T12:27:23.915Z,8.57
2022-10-12T12:29:52.943Z,11.88
2022-10-12T12:32:22.409Z,7.55
2022-10-12T12:35:00.266Z,7.47
2022-10-12T12:37:33.472Z,12.38
2022-10-12T12:40:02.185Z,11.23
2022-10-12T12:42:32.349Z,6.55
2022-10-12T12:47:45.514Z,8.80
2022-10-12T12:50:36.731Z,5.00
2022-10-12T12:53:08.246Z,11.43
2022-10-12T12:55:47.427Z,6.38
2022-10-12T12:58:43.183Z,6.85
2022-10-12T13:01:23.754Z,6.05
2022-10-12T13:04:12.108Z,7.35
2022-10-12T13:07:01.762Z,6.55
2022-10-12T13:09:43.513Z,10.70
2022-10-12T13:12:34.379Z,7.22
2022-10-12T13:15:30.046Z,10.18
2022-10-12T13:18:45.668Z,10.77
2022-10-12T13:21:17.654Z,11.25
2022-10-12T13:23:49.466Z,11.88
2022-10-12T13:26:21.242Z,7.95
2022-10-12T13:28:51.264Z,9.00
2022-10-12T13:31:22.959Z,7.05
2022-10-12T13:33:59.730Z,11.05
2022-10-12T13:36:30.522Z,18.33
2022-10-12T13:39:09.154Z,7.38
2022-10-12T13:41:37.841Z,9.52
2022-10-12T13:44:07.430Z,9.98
2022-10-12T13:46:38.991Z,8.48
2022-10-12T13:49:15.989Z,7.60
2022-10-12T13:51:45.813Z,5.63
2022-10-12T13:54:19.183Z,5.45
2022-10-12T13:56:48.528Z,6.25
2022-10-12T13:59:20.201Z,7.20
2022-10-12T14:01:53.335Z,7.57
2022-10-12T14:04:22.210Z,12.95
2022-10-12T14:06:57.365Z,9.35
2022-10-12T14:09:28.813Z,7.57
2022-10-12T14:11:57.558Z,9.95
2022-10-12T14:14:32.086Z,8.80
2022-10-12T14:17:00.690Z,7.18
2022-10-12T14:19:37.318Z,6.53
2022-10-12T14:22:06.130Z,4.20
2022-10-12T14:24:36.886Z,4.80
2022-10-12T14:27:07.102Z,15.00
2022-10-12T14:29:38.355Z,9.23
2022-10-12T14:32:08.616Z,7.28
2022-10-12T14:34:40.991Z,7.15
2022-10-12T14:37:31.869Z,9.85
2022-10-12T14:40:24.872Z,6.05
2022-10-12T14:42:59.330Z,5.55
2022-10-12T14:45:28.382Z,15.98
2022-10-12T14:47:57.335Z,13.20
2022-10-12T14:50:26.034Z,8.88
2022-10-12T14:52:56.359Z,10.52
2022-10-12T14:55:28.021Z,11.68
2022-10-12T14:57:56.688Z,6.47
2022-10-12T15:00:26.897Z,11.18
2022-10-12T15:02:55.913Z,10.75
2022-10-12T15:05:25.657Z,8.27
2022-10-12T15:07:54.167Z,7.82
2022-10-12T15:10:24.079Z,8.15
2022-10-12T15:12:54.803Z,6.43
2022-10-12T15:15:33.371Z,12.27
2022-10-12T15:18:02.326Z,10.10
2022-10-12T15:20:31.662Z,9.18
2022-10-12T15:23:01.008Z,10.00
2022-10-12T15:25:38.047Z,11.98
2022-10-12T15:28:08.256Z,11.07
2022-10-12T15:30:52.075Z,8.95
2022-10-12T15:33:25.822Z,8.80
2022-10-12T15:35:54.428Z,9.75
2022-10-12T15:38:23.143Z,14.70
2022-10-12T15:40:52.904Z,11.75
2022-10-12T15:43:23.015Z,18.05
2022-10-12T15:45:52.002Z,12.13
2022-10-12T15:48:20.653Z,11.45
2022-10-12T15:50:50.366Z,13.63
2022-10-12T15:53:22.297Z,11.65
2022-10-12T15:55:50.730Z,11.32
2022-10-12T15:58:19.315Z,12.32
2022-10-12T16:00:49.410Z,13.10
2022-10-12T16:03:25.922Z,11.90
2022-10-12T16:05:55.235Z,14.45
2022-10-12T16:08:23.947Z,16.77
2022-10-12T16:10:52.571Z,19.48
2022-10-12T16:13:21.507Z,18.88
2022-10-12T16:15:51.501Z,19.42
2022-10-12T16:18:20.270Z,20.77
2022-10-12T16:20:53.610Z,15.10
2022-10-12T16:23:25.112Z,15.65
2022-10-12T16:25:53.539Z,18.08
2022-10-12T16:28:22.909Z,17.38
2022-10-12T16:30:53.775Z,12.80
2022-10-12T16:33:22.671Z,26.73
2022-10-12T16:35:51.360Z,17.50
2022-10-12T16:38:20.945Z,11.43
2022-10-12T16:40:50.080Z,22.75
2022-10-12T16:43:19.600Z,16.63
2022-10-12T16:45:57.417Z,16.73
2022-10-12T16:48:26.098Z,14.20
2022-10-12T16:50:54.738Z,16.67
2022-10-12T16:53:23.674Z,18.15
2022-10-12T16:55:52.563Z,14.82
2022-10-12T16:58:21.272Z,13.70
2022-10-12T17:00:50.173Z,12.23
2022-10-12T17:03:20.284Z,28.63
2022-10-12T17:05:49.016Z,18.40
2022-10-12T17:08:17.940Z,13.38
2022-10-12T17:10:46.359Z,15.75
2022-10-12T17:13:15.153Z,15.75
2022-10-12T17:15:43.907Z,18.17
2022-10-12T17:18:12.609Z,26.75
2022-10-12T17:20:42.622Z,16.95
2022-10-12T17:23:11.389Z,14.00
2022-10-12T17:25:39.656Z,17.77
2022-10-12T17:28:08.324Z,12.20
2022-10-12T17:30:38.619Z,17.25
2022-10-12T17:33:07.364Z,9.30
2022-10-12T17:35:40.500Z,20.45
2022-10-12T17:38:10.667Z,18.98
2022-10-12T17:40:40.427Z,13.90
2022-10-12T17:43:09.124Z,14.60
2022-10-12T17:45:40.658Z,17.55
2022-10-12T17:48:09.402Z,16.92
2022-10-12T17:53:11.581Z,24.73
2022-10-12T17:55:48.948Z,24.70
2022-10-12T17:58:17.969Z,22.20
2022-10-12T18:00:46.805Z,15.02
2022-10-12T18:03:15.519Z,19.65
2022-10-12T18:05:46.483Z,20.40
2022-10-12T18:08:16.641Z,18.80
2022-10-12T18:10:45.153Z,22.10
2022-10-12T18:13:13.867Z,19.08
2022-10-12T18:15:44.516Z,20.92
2022-10-12T18:20:44.286Z,19.75
2022-10-12T18:23:13.185Z,24.35
2022-10-12T18:25:43.967Z,23.40
2022-10-12T18:28:13.555Z,30.85
2022-10-12T18:30:48.042Z,34.05
2022-10-12T18:33:17.482Z,27.50
2022-10-12T18:35:46.141Z,31.10
2022-10-12T18:38:14.848Z,28.63
2022-10-12T18:40:44.757Z,31.50
2022-10-12T18:43:13.414Z,34.70
2022-10-12T18:45:43.370Z,32.88
2022-10-12T18:48:12.120Z,42.33
2022-10-12T18:50:41.482Z,37.45
2022-10-12T18:53:10.126Z,31.80
2022-10-12T18:55:39.120Z,34.40
2022-10-12T18:58:09.194Z,31.05
2022-10-12T19:00:38.363Z,26.90
2022-10-12T19:03:07.134Z,35.47
2022-10-12T19:05:35.824Z,27.35
2022-10-12T19:08:04.443Z,42.33
2022-10-12T19:10:32.747Z,52.83
2022-10-12T19:13:01.385Z,39.47
2022-10-12T19:15:31.401Z,39.42
2022-10-12T19:18:00.116Z,38.90
2022-10-12T19:20:28.772Z,41.97
2022-10-12T19:22:57.394Z,41.25
2022-10-12T19:25:25.774Z,45.40
2022-10-12T19:27:54.373Z,37.13
2022-10-12T19:30:23.030Z,34.15
2022-10-12T19:32:53.237Z,41.25
2022-10-12T19:35:23.812Z,36.70
2022-10-12T19:37:54.015Z,37.63
2022-10-12T19:42:51.057Z,45.78
2022-10-12T19:45:19.626Z,38.50
2022-10-12T19:47:48.313Z,42.47
2022-10-12T19:50:18.596Z,39.97
2022-10-12T19:52:46.976Z,40.33
2022-10-12T19:55:17.464Z,41.17
2022-10-12T19:57:48.725Z,40.25
2022-10-12T20:00:17.876Z,43.70
2022-10-12T20:02:47.073Z,37.03
2022-10-12T20:05:15.734Z,39.55
2022-10-12T20:07:45.573Z,47.17
2022-10-12T20:10:14.207Z,48.58
2022-10-12T20:12:42.785Z,43.95
2022-10-12T20:15:12.323Z,43.85
2022-10-12T20:17:40.963Z,39.33
2022-10-12T20:20:10.580Z,37.00
2022-10-12T20:22:38.797Z,34.63
2022-10-12T20:25:09.895Z,35.58
2022-10-12T20:27:38.770Z,34.90
2022-10-12T20:30:08.488Z,34.90
2022-10-12T20:32:37.169Z,32.63
2022-10-12T20:35:06.775Z,45.63
2022-10-12T20:37:35.422Z,35.38
2022-10-12T20:40:04.262Z,47.90
2022-10-12T20:42:34.303Z,40.25
2022-10-12T20:45:02.934Z,42.38
2022-10-12T20:47:31.647Z,39.60
2022-10-12T20:50:00.330Z,38.65
2022-10-12T20:52:28.737Z,38.40
2022-10-12T20:54:57.444Z,36.80
2022-10-12T20:57:26.084Z,45.92
2022-10-12T20:59:56.082Z,44.65
2022-10-12T21:02:24.681Z,44.10
2022-10-12T21:04:52.912Z,45.08
2022-10-12T21:07:21.594Z,35.40
2022-10-12T21:09:51.993Z,43.28
2022-10-12T21:14:49.769Z,40.38
2022-10-12T21:17:20.355Z,55.00
2022-10-12T21:19:49.534Z,74.57
2022-10-12T21:22:18.511Z,87.22
2022-10-12T21:24:47.500Z,84.28
2022-10-12T21:27:16.196Z,55.70
2022-10-12T21:29:44.808Z,54.50
2022-10-12T21:32:13.322Z,63.15
2022-10-12T21:34:42.978Z,68.25
2022-10-12T21:37:11.795Z,73.13
2022-10-12T21:39:40.534Z,80.88
2022-10-12T21:42:09.174Z,73.63
2022-10-12T21:44:37.959Z,68.22
2022-10-12T21:47:06.515Z,63.65
2022-10-12T21:49:34.846Z,66.03
2022-10-12T21:52:05.064Z,55.72
2022-10-12T21:54:33.762Z,48.00
2022-10-12T21:57:02.417Z,54.17
2022-10-12T21:59:34.195Z,47.20
2022-10-12T22:02:02.852Z,50.30
2022-10-12T22:04:33.264Z,55.22
2022-10-12T22:07:02.007Z,50.17
2022-10-12T22:09:32.063Z,49.20
2022-10-12T22:12:00.775Z,42.85
2022-10-12T22:14:29.461Z,48.95
2022-10-12T22:16:58.049Z,46.63
2022-10-12T22:19:26.517Z,47.40
2022-10-12T22:21:55.232Z,48.67
2022-10-12T22:24:29.228Z,44.83
2022-10-12T22:26:59.405Z,53.92
2022-10-12T22:29:28.033Z,60.10
2022-10-12T22:31:56.416Z,48.72
2022-10-12T22:34:25.070Z,49.50
2022-10-12T22:36:53.653Z,45.67
2022-10-12T22:39:26.060Z,57.28
2022-10-12T22:41:54.729Z,59.40
2022-10-12T22:44:27.613Z,62.22
2022-10-12T22:46:56.767Z,72.75
2022-10-12T22:49:25.400Z,71.53
2022-10-12T22:51:54.115Z,70.20
2022-10-12T22:54:22.803Z,70.00
2022-10-12T22:56:51.966Z,76.60
2022-10-12T22:59:20.681Z,70.00
2022-10-12T23:01:50.355Z,79.45
2022-10-12T23:04:19.083Z,70.25
2022-10-12T23:06:47.709Z,72.80
2022-10-12T23:09:16.298Z,68.32
2022-10-12T23:11:44.971Z,56.67
2022-10-12T23:14:13.581Z,65.00
2022-10-12T23:16:41.867Z,59.03
2022-10-12T23:19:11.946Z,53.72
2022-10-12T23:21:40.616Z,54.70
2022-10-12T23:24:10.694Z,58.40
2022-10-12T23:26:39.361Z,51.08
2022-10-12T23:29:07.977Z,51.88
2022-10-12T23:31:36.995Z,47.08
2022-10-12T23:34:06.823Z,42.60
2022-10-12T23:36:36.821Z,70.18
2022-10-12T23:39:06.600Z,55.90
2022-10-12T23:41:35.232Z,54.85
2022-10-12T23:44:03.950Z,53.90
2022-10-12T23:46:32.303Z,59.33
2022-10-12T23:49:00.961Z,41.22
2022-10-12T23:51:29.782Z,44.72
2022-10-12T23:53:59.889Z,54.47
2022-10-12T23:56:28.651Z,56.28
2022-10-12T23:58:57.275Z,51.70
